Miltonvale, Kansas
Current Conditions -  °F | °C
As of 6:55 PM on Wednesday 26 Nov 2014 (Local Time) from KCNK Reporting Station
Clear Clear  
Wind Chill: 20°   Ceiling: Unl
Heat Index: 30°   Visibility: 10mi
Dew Point: 20°   Wind: 13mph
Humidity: 66%   Direction: 340°NNW
Pressure: 30.37"   Gusts: 22mph
Location:  39.35°N, 97.45°W
Report Text: KCNK 270055Z AUTO 34011G19KT 10SM CLR M01/M07 A3037 RMK AO2 SLP296 T10111067
Loading
Personal Weather Stations






























Interactive Weather Map New forecast layout! Learn more

10-Day Weather Forecast

Advertisements
Track Severe Weather on mobile